Terminal Aerodrome Forecast
Issued by NWS

Home | Current Version | Previous Version | Text Only | Print | Product List | Glossary On
Versions: 1 2 3 4 5 6 7 8 9 10 11 12 13 14 15 16 17 18 19 20 21 22
676
FTUS42 KGSP 251002 AAA
TAFGMU
TAF AMD
KGMU 251002Z 2510/2606 20009KT P6SM SCT045 BKN090
     FM251200 22008KT P6SM VCSH BKN025
     FM251400 24010KT P6SM BKN040
     FM251600 25013G22KT P6SM BKN080
     FM252300 28013G22KT P6SM SKC
     FM260200 30009KT P6SM SKC=

USA.gov is the U.S. government's official web portal to all federal, state and local government web resources and services.